Saint Benedict, Oregon
Current Conditions -  °F | °C
As of 1:53 PM on Monday 20 Oct 2014 (Local Time) from KUAO Reporting Station
Broken Clouds Broken Clouds  
Wind Chill: 62°   Ceiling: 7000
Heat Index: 62°   Visibility: 10mi
Dew Point: 54°   Wind: 16mph
Humidity: 75%   Direction: 180°S
Pressure: 29.8"   Gusts: NA
Location:  45.05°N, 122.76°W
Report Text: KUAO 202053Z AUTO 18014KT 10SM BKN070 BKN085 17/12 A2980 RMK AO2 SLP091 60001 T01670122 50001
Loading
Personal Weather Stations






























Interactive Weather Map
Tropical Storm Tracking
New forecast layout! Learn more

10-Day Weather Forecast

Advertisements
Track Severe Weather on mobile